Time;durP1;ratioP1;P1;durP2;ratioP2;P2;SDS_P1;SDS_P2;PMS_P1;PMS_P2;Temp;Humidity;BMP_temperature;BMP_pressure;BME280_temperature;BME280_humidity;BME280_pressure;Samples;Min_cycle;Max_cycle;Signal;HPM_P1;HPM_P2
2023/12/10 00:01:25;;;;;;;4.43;1.52;;;20.40;40.40;;;;;;5032246;28;20025;-54
2023/12/10 00:03:51;;;;;;;4.60;1.60;;;20.40;40.50;;;;;;5032363;28;20120;-57
2023/12/10 00:06:17;;;;;;;4.05;1.60;;;20.40;40.40;;;;;;5014878;28;20344;-55
2023/12/10 00:08:42;;;;;;;4.03;1.42;;;20.40;40.30;;;;;;5031104;28;20021;-55
2023/12/10 00:11:08;;;;;;;3.42;1.35;;;20.40;40.30;;;;;;5032580;28;20052;-54
2023/12/10 00:13:34;;;;;;;4.40;1.70;;;20.40;40.40;;;;;;5032449;28;20036;-54
2023/12/10 00:16:00;;;;;;;5.60;1.50;;;20.40;40.30;;;;;;5030035;28;20388;-55
2023/12/10 00:18:26;;;;;;;4.57;1.60;;;20.30;40.20;;;;;;5033784;28;20022;-55
2023/12/10 00:20:52;;;;;;;5.80;1.77;;;20.30;40.20;;;;;;5035972;28;20022;-57
2023/12/10 00:23:18;;;;;;;6.28;1.80;;;20.30;40.20;;;;;;5018122;28;20086;-54
2023/12/10 00:25:45;;;;;;;3.90;1.40;;;20.30;40.20;;;;;;5035706;28;20018;-52
2023/12/10 00:28:11;;;;;;;7.65;1.92;;;20.30;40.20;;;;;;5035907;28;20025;-55
2023/12/10 00:30:37;;;;;;;5.32;1.38;;;20.30;40.20;;;;;;5035833;28;20086;-56
2023/12/10 00:33:03;;;;;;;4.10;1.48;;;20.30;40.30;;;;;;5035489;28;20607;-51
2023/12/10 00:35:29;;;;;;;4.03;1.65;;;20.30;40.40;;;;;;5015763;28;20435;-53
2023/12/10 00:37:55;;;;;;;4.60;2.00;;;20.30;40.30;;;;;;5017512;28;20025;-53
2023/12/10 00:40:21;;;;;;;3.67;1.40;;;20.30;40.30;;;;;;5035874;28;20037;-54
2023/12/10 00:42:47;;;;;;;5.20;1.77;;;20.20;40.30;;;;;;5035507;28;20033;-55
2023/12/10 00:45:13;;;;;;;4.15;1.70;;;20.30;40.40;;;;;;5038386;28;20045;-56
2023/12/10 00:47:39;;;;;;;4.93;1.60;;;20.20;40.40;;;;;;5038270;28;20127;-54
2023/12/10 00:50:06;;;;;;;4.07;1.58;;;20.20;40.40;;;;;;5041672;28;20053;-55
2023/12/10 00:52:32;;;;;;;4.35;1.63;;;20.20;40.40;;;;;;5039775;28;20021;-57
2023/12/10 00:54:58;;;;;;;4.65;1.70;;;20.20;40.50;;;;;;5041944;28;20063;-55
2023/12/10 00:57:24;;;;;;;6.43;2.00;;;20.20;40.50;;;;;;5039715;28;20489;-56
2023/12/10 00:59:49;;;;;;;4.53;1.60;;;20.20;40.60;;;;;;5037305;28;20037;-57
2023/12/10 01:02:15;;;;;;;3.47;1.40;;;20.20;40.60;;;;;;5039286;28;20021;-57
2023/12/10 01:04:41;;;;;;;4.65;1.50;;;20.20;40.60;;;;;;5042841;28;20040;-56
2023/12/10 01:07:08;;;;;;;3.75;1.30;;;20.20;40.70;;;;;;5015422;28;20025;-58
2023/12/10 01:09:36;;;;;;;4.13;1.48;;;20.20;40.80;;;;;;5020904;28;20021;-55
2023/12/10 01:12:03;;;;;;;4.78;1.98;;;20.20;40.80;;;;;;5040442;28;20052;-59
2023/12/10 01:14:29;;;;;;;3.70;1.52;;;20.10;40.80;;;;;;5042454;28;20428;-55
2023/12/10 01:16:55;;;;;;;4.03;1.33;;;20.20;40.90;;;;;;5035429;28;20022;-55
2023/12/10 01:19:22;;;;;;;5.82;1.80;;;20.10;40.90;;;;;;5039480;28;20033;-56
2023/12/10 01:21:49;;;;;;;5.15;1.58;;;20.10;40.90;;;;;;5025189;28;20466;-57
2023/12/10 01:24:18;;;;;;;4.38;1.42;;;20.10;40.90;;;;;;5038170;28;20013;-55
2023/12/10 01:26:44;;;;;;;3.95;1.48;;;20.10;41.00;;;;;;5037634;28;20345;-57
2023/12/10 01:29:10;;;;;;;5.20;1.60;;;20.10;41.00;;;;;;5038421;28;20018;-55
2023/12/10 01:31:36;;;;;;;5.40;1.70;;;20.10;41.00;;;;;;5038465;28;20106;-57
2023/12/10 01:34:03;;;;;;;3.17;1.30;;;20.10;41.00;;;;;;5039976;28;20033;-54
2023/12/10 01:36:29;;;;;;;4.03;1.45;;;20.10;41.00;;;;;;5037359;28;20033;-54
2023/12/10 01:38:56;;;;;;;5.22;1.50;;;20.10;41.70;;;;;;5042695;28;20036;-48
2023/12/10 01:41:23;;;;;;;5.30;1.73;;;20.10;41.00;;;;;;5037542;28;20034;-56
2023/12/10 01:43:50;;;;;;;3.38;1.40;;;20.10;41.00;;;;;;5021150;28;20033;-55
2023/12/10 01:46:16;;;;;;;5.00;1.77;;;20.10;41.00;;;;;;5036974;28;20025;-53
2023/12/10 01:48:43;;;;;;;4.30;1.42;;;20.10;41.00;;;;;;5034137;28;20032;-54
2023/12/10 01:51:09;;;;;;;4.55;1.55;;;20.10;41.00;;;;;;5036477;28;20040;-57
2023/12/10 01:53:37;;;;;;;4.90;1.48;;;20.10;41.00;;;;;;5016434;28;20026;-55
2023/12/10 01:56:07;;;;;;;6.90;1.70;;;20.10;40.90;;;;;;5034374;28;20417;-54
2023/12/10 01:58:34;;;;;;;5.07;1.52;;;20.10;40.90;;;;;;5033618;28;20021;-56
2023/12/10 02:01:01;;;;;;;5.10;1.55;;;20.10;40.90;;;;;;5034006;28;20396;-56
2023/12/10 02:03:29;;;;;;;3.83;1.38;;;20.20;40.90;;;;;;5034554;28;20123;-50
2023/12/10 02:05:55;;;;;;;5.50;1.50;;;20.10;40.90;;;;;;5016635;28;20449;-53
2023/12/10 02:08:22;;;;;;;4.65;1.40;;;20.10;40.90;;;;;;5015564;28;20029;-55
2023/12/10 02:10:48;;;;;;;4.25;1.35;;;20.20;40.90;;;;;;5018358;28;20104;-58
2023/12/10 02:13:14;;;;;;;3.20;1.48;;;20.20;40.90;;;;;;5034120;28;20117;-54
2023/12/10 02:15:40;;;;;;;4.97;1.85;;;20.10;40.80;;;;;;5033675;28;20084;-52
2023/12/10 02:18:06;;;;;;;4.18;1.45;;;20.20;40.80;;;;;;5033076;28;20080;-52
2023/12/10 02:20:32;;;;;;;2.97;1.10;;;20.10;40.80;;;;;;5035948;28;20025;-56
2023/12/10 02:23:09;;;;;;;5.93;1.35;;;20.20;40.80;;;;;;5015639;28;20025;-59
2023/12/10 02:25:36;;;;;;;4.72;1.70;;;20.20;40.80;;;;;;5031584;28;20021;-53
2023/12/10 02:28:07;;;;;;;3.20;1.00;;;20.10;40.70;;;;;;5034203;28;20022;-49
2023/12/10 02:30:34;;;;;;;2.85;1.08;;;20.10;40.70;;;;;;5032879;28;20103;-52
2023/12/10 02:33:01;;;;;;;4.53;1.30;;;20.20;40.70;;;;;;5033169;28;20079;-57
2023/12/10 02:35:27;;;;;;;3.30;1.30;;;20.20;40.70;;;;;;5017962;28;20045;-57
2023/12/10 02:37:53;;;;;;;3.90;1.52;;;20.20;40.70;;;;;;5033179;28;20044;-55
2023/12/10 02:40:19;;;;;;;3.60;1.30;;;20.20;40.70;;;;;;5033721;28;20409;-56
2023/12/10 02:42:46;;;;;;;3.20;1.33;;;20.20;40.70;;;;;;5033250;28;20028;-52
2023/12/10 02:45:13;;;;;;;3.45;1.48;;;20.20;40.70;;;;;;5032590;28;20380;-53
2023/12/10 02:47:40;;;;;;;3.47;1.30;;;20.20;41.30;;;;;;5014848;28;20033;-52
2023/12/10 02:50:07;;;;;;;3.53;1.15;;;20.20;40.70;;;;;;5033657;28;20408;-54
2023/12/10 02:52:36;;;;;;;3.70;1.17;;;20.20;40.70;;;;;;5033367;28;20040;-54
2023/12/10 02:55:06;;;;;;;5.45;1.40;;;20.20;40.70;;;;;;5032820;28;20341;-54
2023/12/10 02:57:32;;;;;;;3.58;1.30;;;20.20;40.70;;;;;;5013180;28;20075;-55
2023/12/10 02:59:58;;;;;;;4.72;1.63;;;20.20;40.70;;;;;;5015628;28;20037;-52
2023/12/10 03:02:24;;;;;;;4.63;1.40;;;20.20;40.70;;;;;;5032368;28;20344;-56
2023/12/10 03:04:50;;;;;;;3.25;1.50;;;20.20;40.70;;;;;;5032453;28;20025;-58
2023/12/10 03:07:16;;;;;;;3.72;1.40;;;20.20;40.70;;;;;;5032589;28;20036;-55
2023/12/10 03:09:44;;;;;;;4.63;1.55;;;20.20;40.70;;;;;;5033298;28;20025;-55
2023/12/10 03:12:10;;;;;;;6.22;1.58;;;20.20;40.70;;;;;;5032688;28;20048;-57
2023/12/10 03:14:36;;;;;;;5.75;1.77;;;20.20;40.70;;;;;;5030387;28;20061;-59
2023/12/10 03:17:02;;;;;;;4.63;1.30;;;20.20;40.70;;;;;;5013763;28;20345;-52
2023/12/10 03:19:28;;;;;;;4.82;1.45;;;20.20;40.70;;;;;;5032793;28;20068;-57
2023/12/10 03:21:54;;;;;;;3.20;1.10;;;20.20;40.70;;;;;;5032489;28;20057;-56
2023/12/10 03:24:20;;;;;;;5.70;1.45;;;20.20;40.70;;;;;;5032656;28;20026;-55
2023/12/10 03:26:46;;;;;;;2.95;1.30;;;20.20;40.70;;;;;;5030695;28;20384;-54
2023/12/10 03:29:12;;;;;;;5.43;1.45;;;20.10;40.70;;;;;;5032823;28;20075;-56
2023/12/10 03:31:38;;;;;;;3.47;1.25;;;20.20;40.70;;;;;;5032406;28;20437;-53
2023/12/10 03:34:04;;;;;;;5.30;1.58;;;20.20;40.70;;;;;;5032006;28;20120;-51
2023/12/10 03:36:30;;;;;;;5.07;1.27;;;20.20;40.70;;;;;;5014842;28;20399;-52
2023/12/10 03:38:56;;;;;;;3.55;1.42;;;20.10;40.70;;;;;;5014878;28;20032;-52
2023/12/10 03:41:22;;;;;;;3.47;1.30;;;20.10;40.60;;;;;;5014589;28;20029;-55
2023/12/10 03:43:47;;;;;;;3.97;1.27;;;20.20;40.70;;;;;;5032299;28;20030;-48
2023/12/10 03:46:13;;;;;;;4.25;1.30;;;20.20;40.80;;;;;;5032469;28;20465;-58
2023/12/10 03:48:39;;;;;;;4.10;1.13;;;20.10;40.60;;;;;;5032808;28;20041;-54
2023/12/10 03:51:05;;;;;;;3.28;1.20;;;20.20;40.70;;;;;;5031775;28;20083;-57
2023/12/10 03:53:31;;;;;;;4.72;1.45;;;20.10;40.60;;;;;;5034106;28;20116;-55
2023/12/10 03:55:59;;;;;;;3.70;1.30;;;20.10;40.60;;;;;;5035631;28;20045;-52
2023/12/10 03:58:24;;;;;;;2.85;1.30;;;20.20;40.70;;;;;;5036747;28;20103;-56
2023/12/10 04:00:50;;;;;;;4.25;1.48;;;20.10;40.60;;;;;;5018307;28;20037;-55
2023/12/10 04:03:16;;;;;;;4.15;1.60;;;20.10;40.60;;;;;;5036517;28;20112;-56
2023/12/10 04:05:42;;;;;;;5.50;1.77;;;20.10;40.60;;;;;;5036164;28;20108;-54
2023/12/10 04:08:08;;;;;;;3.72;1.30;;;20.10;40.60;;;;;;5017176;28;20429;-53
2023/12/10 04:10:34;;;;;;;2.90;1.10;;;20.10;40.60;;;;;;5036012;28;20336;-55
2023/12/10 04:13:00;;;;;;;4.13;1.50;;;20.10;40.60;;;;;;5035971;28;20033;-51
2023/12/10 04:15:27;;;;;;;3.90;1.42;;;20.10;40.60;;;;;;5018091;28;20059;-56
2023/12/10 04:17:53;;;;;;;3.80;1.33;;;20.10;40.60;;;;;;5015484;28;20037;-58
2023/12/10 04:20:19;;;;;;;3.75;1.50;;;20.10;40.60;;;;;;5018601;28;20102;-51
2023/12/10 04:22:44;;;;;;;4.53;1.33;;;20.10;40.60;;;;;;5036046;28;20428;-57
2023/12/10 04:25:10;;;;;;;4.38;1.45;;;20.10;40.60;;;;;;5018150;28;20071;-53
2023/12/10 04:27:37;;;;;;;4.53;1.48;;;20.10;40.60;;;;;;5035831;28;20022;-56
2023/12/10 04:30:04;;;;;;;3.33;1.52;;;20.20;40.60;;;;;;5035346;28;20033;-52
2023/12/10 04:32:31;;;;;;;4.90;1.23;;;20.10;40.60;;;;;;5035428;28;20036;-52
2023/12/10 04:34:57;;;;;;;3.28;1.20;;;20.10;40.60;;;;;;5035608;28;20053;-53
2023/12/10 04:37:23;;;;;;;4.13;1.27;;;20.10;40.60;;;;;;5018052;28;20032;-57
2023/12/10 04:39:49;;;;;;;4.88;1.50;;;20.10;40.60;;;;;;5018343;28;20041;-55
2023/12/10 04:42:15;;;;;;;5.30;1.58;;;20.10;40.60;;;;;;5035403;28;20117;-55
2023/12/10 04:44:40;;;;;;;4.80;1.65;;;20.10;40.60;;;;;;5027255;28;20049;-59
2023/12/10 04:47:07;;;;;;;5.43;1.50;;;20.10;40.60;;;;;;5037687;28;20067;-55
2023/12/10 04:49:32;;;;;;;4.85;1.23;;;20.10;40.60;;;;;;5055541;28;20356;-53
2023/12/10 04:51:58;;;;;;;6.28;1.70;;;20.10;40.60;;;;;;5055315;28;20033;-51
2023/12/10 04:54:26;;;;;;;4.45;1.40;;;20.10;40.60;;;;;;5054967;28;20099;-58
2023/12/10 04:56:52;;;;;;;3.50;1.23;;;20.10;40.60;;;;;;5035115;28;20025;-56
2023/12/10 04:59:17;;;;;;;3.50;1.40;;;20.10;40.60;;;;;;5037485;28;20021;-51
2023/12/10 05:01:43;;;;;;;5.07;1.35;;;20.10;40.60;;;;;;5054163;28;20025;-56
2023/12/10 05:04:09;;;;;;;5.40;1.50;;;20.10;40.60;;;;;;5053642;28;20044;-53
2023/12/10 05:06:35;;;;;;;3.70;1.25;;;20.10;40.60;;;;;;5053723;28;20060;-51
2023/12/10 05:09:03;;;;;;;4.10;1.23;;;20.00;40.50;;;;;;5053919;28;20048;-53
2023/12/10 05:11:29;;;;;;;5.20;1.55;;;20.00;40.50;;;;;;5053607;28;20384;-57
2023/12/10 05:13:55;;;;;;;4.30;1.30;;;20.00;40.50;;;;;;5053836;28;20048;-54
2023/12/10 05:16:21;;;;;;;4.78;1.30;;;20.00;40.50;;;;;;5054439;28;20090;-57
2023/12/10 05:18:47;;;;;;;5.20;1.60;;;20.10;40.60;;;;;;5053262;28;20032;-54
2023/12/10 05:21:13;;;;;;;3.78;1.45;;;20.00;40.50;;;;;;5054651;28;20028;-55
2023/12/10 05:23:39;;;;;;;6.00;1.55;;;20.00;40.50;;;;;;5037439;28;20529;-55
2023/12/10 05:26:05;;;;;;;5.68;1.58;;;20.00;40.50;;;;;;5054263;28;20109;-54
2023/12/10 05:28:31;;;;;;;4.47;1.42;;;20.00;40.50;;;;;;5037348;28;20452;-54
2023/12/10 05:30:57;;;;;;;5.00;1.73;;;20.00;40.50;;;;;;5054602;28;20029;-55
2023/12/10 05:33:23;;;;;;;5.35;1.80;;;20.00;40.50;;;;;;5036581;28;20094;-57
2023/12/10 05:35:49;;;;;;;4.45;1.42;;;20.00;40.40;;;;;;5053868;28;20071;-56
2023/12/10 05:38:15;;;;;;;3.78;1.52;;;20.00;40.40;;;;;;5054369;28;20040;-52
2023/12/10 05:40:41;;;;;;;4.47;1.33;;;20.00;40.40;;;;;;5054362;28;20033;-55
2023/12/10 05:43:07;;;;;;;3.47;1.33;;;20.00;40.40;;;;;;5054661;28;20068;-54
2023/12/10 05:45:33;;;;;;;5.07;1.80;;;20.00;40.40;;;;;;5045501;28;20124;-54
2023/12/10 05:47:59;;;;;;;3.70;1.55;;;20.00;40.40;;;;;;5046898;28;20021;-54
2023/12/10 05:50:25;;;;;;;3.97;1.27;;;20.00;40.40;;;;;;5044546;28;20421;-54
2023/12/10 05:52:50;;;;;;;3.58;1.10;;;20.00;40.30;;;;;;5019287;28;20345;-52
2023/12/10 05:55:16;;;;;;;5.97;1.40;;;20.00;40.30;;;;;;5040875;28;20051;-58
2023/12/10 05:57:42;;;;;;;2.78;1.00;;;20.00;40.30;;;;;;5037113;28;20437;-51
2023/12/10 06:00:08;;;;;;;6.95;2.00;;;20.00;40.30;;;;;;5035871;28;20035;-56
2023/12/10 06:02:34;;;;;;;5.25;1.50;;;20.00;40.30;;;;;;5038774;28;20098;-54
2023/12/10 06:05:00;;;;;;;4.10;1.23;;;20.00;40.30;;;;;;5040686;28;20115;-51
2023/12/10 06:07:27;;;;;;;3.00;1.30;;;20.00;40.30;;;;;;5036710;28;20475;-54
2023/12/10 06:09:52;;;;;;;5.55;1.83;;;20.00;40.30;;;;;;5043167;28;20029;-60
2023/12/10 06:12:18;;;;;;;4.13;1.38;;;20.00;40.30;;;;;;5043437;28;20029;-46
2023/12/10 06:14:44;;;;;;;4.57;1.40;;;20.00;40.30;;;;;;5042011;28;20436;-52
2023/12/10 06:17:10;;;;;;;5.55;1.70;;;19.90;40.20;;;;;;5036843;28;20029;-53
2023/12/10 06:19:36;;;;;;;3.88;1.50;;;19.90;40.20;;;;;;5040897;28;20045;-51
2023/12/10 06:22:02;;;;;;;3.60;1.27;;;20.00;40.20;;;;;;5037949;28;20067;-54
2023/12/10 06:24:28;;;;;;;5.95;1.88;;;20.00;40.20;;;;;;5042075;28;20448;-55
2023/12/10 06:26:54;;;;;;;4.20;1.50;;;20.00;40.20;;;;;;5044923;28;20039;-54
2023/12/10 06:29:20;;;;;;;5.65;1.60;;;20.00;40.20;;;;;;5037518;28;20056;-55
2023/12/10 06:31:46;;;;;;;4.20;1.27;;;20.00;40.20;;;;;;5040270;28;20104;-57
2023/12/10 06:34:12;;;;;;;3.70;1.25;;;20.00;40.20;;;;;;5038658;28;20033;-45
2023/12/10 06:36:38;;;;;;;3.90;1.38;;;20.00;40.20;;;;;;5039032;28;20016;-55
2023/12/10 06:39:04;;;;;;;5.07;1.42;;;19.90;40.10;;;;;;5039961;28;20056;-53
2023/12/10 06:41:30;;;;;;;3.63;1.20;;;20.00;40.20;;;;;;5040168;28;20407;-53
2023/12/10 06:43:56;;;;;;;4.03;1.10;;;20.00;40.20;;;;;;5021749;28;20144;-50
2023/12/10 06:46:22;;;;;;;4.10;1.30;;;19.90;40.10;;;;;;5030920;28;20048;-55
2023/12/10 06:48:48;;;;;;;3.30;1.58;;;19.90;40.20;;;;;;5032696;28;20044;-52
2023/12/10 06:51:14;;;;;;;2.88;1.20;;;20.00;40.20;;;;;;5034300;28;20029;-50
2023/12/10 06:53:41;;;;;;;3.05;1.08;;;19.90;40.20;;;;;;5039678;28;20040;-49
2023/12/10 06:56:10;;;;;;;4.13;1.60;;;19.90;40.20;;;;;;5026340;28;20348;-56
2023/12/10 06:58:36;;;;;;;3.85;1.38;;;19.90;40.20;;;;;;5038807;28;20368;-56
2023/12/10 07:01:03;;;;;;;4.20;1.48;;;19.90;40.20;;;;;;5020195;28;20029;-58
2023/12/10 07:03:29;;;;;;;3.10;1.20;;;19.90;40.20;;;;;;5030892;28;20022;-54
2023/12/10 07:05:55;;;;;;;2.58;1.10;;;19.90;40.20;;;;;;5033945;28;20218;-56
2023/12/10 07:08:21;;;;;;;3.60;1.20;;;19.90;40.20;;;;;;5030352;28;20087;-57
2023/12/10 07:10:47;;;;;;;3.83;1.48;;;19.90;40.20;;;;;;5024800;28;20511;-56
2023/12/10 07:13:13;;;;;;;3.95;1.33;;;19.90;40.20;;;;;;5020524;28;20495;-54
2023/12/10 07:15:42;;;;;;;3.78;1.25;;;19.90;40.20;;;;;;5024529;28;20084;-56
2023/12/10 07:18:08;;;;;;;5.05;1.50;;;19.90;40.20;;;;;;5032367;28;20029;-58
2023/12/10 07:20:34;;;;;;;3.22;1.30;;;19.90;40.20;;;;;;5031160;28;20037;-54
2023/12/10 07:23:00;;;;;;;4.53;1.17;;;19.90;40.30;;;;;;5026184;28;20044;-49
2023/12/10 07:25:26;;;;;;;4.85;1.50;;;19.90;40.40;;;;;;5028424;28;20034;-58
2023/12/10 07:27:52;;;;;;;5.60;1.23;;;19.90;40.40;;;;;;5023238;28;20056;-52
2023/12/10 07:30:18;;;;;;;3.63;1.38;;;19.90;40.40;;;;;;5038376;28;20673;-54
2023/12/10 07:32:44;;;;;;;4.40;1.45;;;19.90;40.30;;;;;;5026365;28;20021;-50
2023/12/10 07:35:10;;;;;;;4.47;1.58;;;19.90;40.30;;;;;;5037678;28;20063;-53
2023/12/10 07:37:35;;;;;;;4.03;1.52;;;19.90;40.30;;;;;;5034709;28;20029;-53
2023/12/10 07:40:08;;;;;;;3.85;1.55;;;19.90;40.20;;;;;;5036350;28;20053;-53
2023/12/10 07:42:34;;;;;;;3.75;1.00;;;19.90;40.20;;;;;;5040029;28;20025;-55
2023/12/10 07:45:01;;;;;;;3.58;1.23;;;19.90;40.20;;;;;;5036837;28;20107;-52
2023/12/10 07:47:27;;;;;;;3.83;1.27;;;19.90;40.10;;;;;;5018747;28;20453;-54
2023/12/10 07:49:53;;;;;;;3.63;1.23;;;19.90;40.10;;;;;;5035994;28;20099;-54
2023/12/10 07:52:19;;;;;;;3.80;1.20;;;19.90;40.10;;;;;;5018062;28;20025;-47
2023/12/10 07:54:45;;;;;;;4.53;1.48;;;19.90;40.10;;;;;;5035308;28;20120;-52
2023/12/10 07:57:11;;;;;;;4.00;1.10;;;19.80;40.00;;;;;;5018270;28;20083;-49
2023/12/10 07:59:37;;;;;;;5.90;1.50;;;19.90;40.00;;;;;;5018840;28;20029;-54
2023/12/10 08:02:03;;;;;;;3.45;1.15;;;19.80;40.00;;;;;;5035559;28;20067;-52
2023/12/10 08:04:29;;;;;;;3.35;1.33;;;19.90;40.00;;;;;;5036169;28;20064;-54
2023/12/10 08:06:55;;;;;;;6.20;1.88;;;19.80;39.90;;;;;;5036163;28;20437;-51
2023/12/10 08:09:21;;;;;;;5.15;1.60;;;19.80;40.00;;;;;;5036016;28;20025;-52
2023/12/10 08:11:47;;;;;;;3.85;1.48;;;19.90;40.00;;;;;;5017980;28;20025;-53
2023/12/10 08:14:13;;;;;;;4.03;1.50;;;19.80;40.00;;;;;;5035599;28;20040;-51
2023/12/10 08:16:39;;;;;;;4.18;1.38;;;19.80;40.00;;;;;;5035633;28;20108;-57
2023/12/10 08:19:05;;;;;;;4.38;1.63;;;19.80;40.00;;;;;;5036239;28;20014;-52
2023/12/10 08:21:31;;;;;;;4.43;1.85;;;19.80;40.00;;;;;;5035477;28;20087;-54
2023/12/10 08:23:57;;;;;;;3.33;1.15;;;19.80;40.10;;;;;;5035996;28;20395;-54
2023/12/10 08:26:23;;;;;;;4.35;1.38;;;19.80;40.10;;;;;;5017326;28;20037;-54
2023/12/10 08:28:49;;;;;;;4.32;1.30;;;19.70;40.00;;;;;;5033537;28;20037;-52
2023/12/10 08:31:15;;;;;;;4.82;1.52;;;19.80;40.10;;;;;;5035300;28;20030;-48
2023/12/10 08:33:44;;;;;;;4.30;1.27;;;19.70;40.00;;;;;;5035321;28;20029;-54
2023/12/10 08:36:10;;;;;;;6.35;1.33;;;19.70;40.00;;;;;;5035665;28;20045;-57
2023/12/10 08:38:36;;;;;;;3.58;1.10;;;19.70;40.10;;;;;;5034883;28;20021;-52
2023/12/10 08:41:02;;;;;;;3.08;1.15;;;19.80;40.20;;;;;;5035988;28;20037;-54
2023/12/10 08:43:30;;;;;;;6.63;1.40;;;19.80;40.20;;;;;;5034952;28;21549;-58
2023/12/10 08:45:57;;;;;;;3.25;1.33;;;19.80;40.20;;;;;;5016681;28;20033;-53
2023/12/10 08:48:24;;;;;;;3.85;1.25;;;19.80;40.20;;;;;;5018052;28;20029;-59
2023/12/10 08:50:51;;;;;;;3.05;1.38;;;19.80;40.20;;;;;;5034692;28;20084;-57
2023/12/10 08:53:17;;;;;;;5.00;1.52;;;19.90;40.20;;;;;;5017417;28;20053;-56
2023/12/10 08:55:43;;;;;;;4.53;1.40;;;19.90;40.90;;;;;;5037848;28;20033;-52
2023/12/10 08:58:09;;;;;;;4.03;1.30;;;20.00;40.20;;;;;;5035962;28;20036;-56
2023/12/10 09:00:35;;;;;;;5.93;1.88;;;20.00;40.20;;;;;;5018529;28;20437;-51
2023/12/10 09:03:01;;;;;;;4.22;1.52;;;20.10;40.10;;;;;;5018403;28;20168;-55
2023/12/10 09:05:26;;;;;;;4.50;1.40;;;20.20;40.20;;;;;;5016734;28;20029;-53
2023/12/10 09:07:52;;;;;;;6.05;1.60;;;20.30;40.30;;;;;;5035758;28;20025;-56
2023/12/10 09:10:18;;;;;;;3.50;1.60;;;20.30;40.30;;;;;;5035892;28;20029;-57
2023/12/10 09:12:44;;;;;;;4.88;1.15;;;20.40;40.30;;;;;;5035832;28;20459;-56
2023/12/10 09:15:10;;;;;;;4.25;1.40;;;20.50;40.30;;;;;;5031993;28;20041;-55
2023/12/10 09:17:36;;;;;;;4.93;1.67;;;20.60;40.30;;;;;;5017500;28;20034;-56
2023/12/10 09:20:04;;;;;;;3.58;1.20;;;20.60;40.20;;;;;;5035821;28;20348;-58
2023/12/10 09:22:30;;;;;;;4.03;1.40;;;20.70;40.20;;;;;;5035915;28;20109;-53
2023/12/10 09:24:56;;;;;;;5.25;1.38;;;20.80;40.10;;;;;;5017841;28;20112;-58
2023/12/10 09:27:22;;;;;;;3.97;1.48;;;20.80;40.00;;;;;;5017835;28;20029;-56
2023/12/10 09:29:48;;;;;;;3.53;1.27;;;20.90;40.00;;;;;;5035606;28;20033;-53
2023/12/10 09:32:16;;;;;;;3.92;1.45;;;20.90;39.90;;;;;;5036226;28;20030;-56
2023/12/10 09:34:43;;;;;;;4.47;1.40;;;21.00;39.80;;;;;;5017404;28;20049;-52
2023/12/10 09:37:13;;;;;;;3.13;1.25;;;21.00;39.60;;;;;;5018265;28;20346;-58
2023/12/10 09:39:39;;;;;;;4.10;1.48;;;21.10;40.20;;;;;;5035476;28;20033;-59
2023/12/10 09:42:05;;;;;;;3.63;1.30;;;21.10;39.40;;;;;;5033487;28;20025;-55
2023/12/10 09:44:32;;;;;;;3.83;1.23;;;21.20;39.40;;;;;;5035078;28;20049;-58
2023/12/10 09:46:58;;;;;;;3.08;1.15;;;21.20;39.30;;;;;;5035670;28;20025;-58
2023/12/10 09:49:26;;;;;;;4.28;1.60;;;21.30;39.20;;;;;;5017307;28;20026;-57
2023/12/10 09:51:52;;;;;;;3.95;1.25;;;21.30;39.10;;;;;;5034915;28;20521;-58
2023/12/10 09:54:22;;;;;;;4.32;1.55;;;21.30;39.00;;;;;;5017245;28;20052;-56
2023/12/10 09:56:50;;;;;;;3.80;1.52;;;21.40;38.90;;;;;;5035027;28;20061;-56
2023/12/10 09:59:17;;;;;;;4.15;1.33;;;21.40;38.90;;;;;;5032518;28;20028;-54
2023/12/10 10:01:53;;;;;;;3.72;1.30;;;21.50;38.80;;;;;;5035690;28;20056;-58
2023/12/10 10:04:19;;;;;;;4.00;1.58;;;21.50;38.70;;;;;;5018385;28;20452;-57
2023/12/10 10:06:45;;;;;;;3.65;1.40;;;21.60;38.70;;;;;;5035445;28;20030;-54
2023/12/10 10:09:11;;;;;;;3.28;1.13;;;21.60;38.60;;;;;;5035525;28;20479;-50
2023/12/10 10:11:39;;;;;;;3.53;1.25;;;21.60;38.60;;;;;;5018436;28;20029;-57
2023/12/10 10:14:05;;;;;;;5.05;2.28;;;21.70;38.70;;;;;;5017996;28;20033;-58
2023/12/10 10:16:31;;;;;;;8.57;3.40;;;21.60;38.70;;;;;;5034760;28;20381;-59
2023/12/10 10:18:59;;;;;;;11.65;4.30;;;21.70;39.20;;;;;;5016590;28;20476;-61
2023/12/10 10:21:29;;;;;;;11.23;5.15;;;21.70;40.50;;;;;;5035955;28;20428;-59
2023/12/10 10:23:56;;;;;;;12.02;5.70;;;21.70;41.50;;;;;;5035497;28;20093;-56
2023/12/10 10:26:22;;;;;;;14.48;6.50;;;21.80;41.60;;;;;;5035428;28;20026;-48
2023/12/10 10:28:48;;;;;;;15.23;6.85;;;21.80;42.20;;;;;;5017792;28;20018;-57
2023/12/10 10:31:16;;;;;;;13.55;6.15;;;21.80;42.70;;;;;;5035434;28;20346;-55
2023/12/10 10:33:44;;;;;;;11.55;4.53;;;21.80;43.10;;;;;;5035233;28;20514;-57
2023/12/10 10:36:10;;;;;;;5.40;3.30;;;21.80;43.20;;;;;;5018071;28;20029;-59
2023/12/10 10:38:36;;;;;;;3.90;2.00;;;21.80;42.50;;;;;;5035582;28;20318;-57
2023/12/10 10:41:02;;;;;;;5.70;1.90;;;21.80;42.00;;;;;;5035030;28;20099;-60
2023/12/10 10:43:28;;;;;;;2.97;1.52;;;21.70;41.50;;;;;;5036114;28;20033;-59
2023/12/10 10:45:55;;;;;;;3.55;1.85;;;21.70;41.40;;;;;;5053889;28;20100;-59
2023/12/10 10:48:25;;;;;;;4.07;1.50;;;21.60;41.20;;;;;;5054483;28;20068;-58
2023/12/10 10:50:52;;;;;;;8.95;2.88;;;21.60;41.80;;;;;;5017875;28;20079;-53
2023/12/10 10:53:18;;;;;;;11.77;3.67;;;21.50;41.10;;;;;;5046577;28;20036;-54
2023/12/10 10:55:48;;;;;;;12.63;4.95;;;21.40;41.10;;;;;;5054905;28;20103;-57
2023/12/10 10:58:24;;;;;;;10.45;4.57;;;21.40;41.20;;;;;;5055149;28;20454;-55
2023/12/10 11:00:51;;;;;;;9.02;4.03;;;21.40;41.70;;;;;;5053371;28;20052;-56
2023/12/10 11:03:17;;;;;;;10.10;4.03;;;21.40;41.90;;;;;;5053227;28;20407;-60
2023/12/10 11:05:44;;;;;;;12.43;4.60;;;21.40;42.00;;;;;;5052592;28;20112;-59
2023/12/10 11:08:11;;;;;;;9.00;4.35;;;21.40;42.30;;;;;;5052885;28;20467;-56
2023/12/10 11:10:44;;;;;;;9.88;4.50;;;21.40;42.60;;;;;;5054265;28;20035;-45
2023/12/10 11:13:10;;;;;;;13.77;6.38;;;21.30;43.00;;;;;;5037038;28;20033;-60
2023/12/10 11:15:36;;;;;;;15.70;6.63;;;21.30;43.50;;;;;;5036956;28;20056;-56
2023/12/10 11:18:03;;;;;;;14.65;6.38;;;21.40;44.30;;;;;;5053387;28;20098;-54
2023/12/10 11:20:43;;;;;;;10.95;5.40;;;21.40;44.70;;;;;;5034540;28;20132;-53
2023/12/10 11:23:16;;;;;;;11.52;5.25;;;21.40;45.80;;;;;;5033373;28;20099;-61
2023/12/10 11:25:43;;;;;;;9.93;5.00;;;21.40;45.20;;;;;;5041624;28;20036;-54
2023/12/10 11:28:14;;;;;;;12.32;5.50;;;21.40;45.30;;;;;;5054724;28;20025;-54
2023/12/10 11:30:41;;;;;;;11.60;5.35;;;21.40;46.10;;;;;;5054041;28;20114;-55
2023/12/10 11:33:09;;;;;;;11.15;5.38;;;21.40;45.60;;;;;;5050809;28;20048;-54
2023/12/10 11:35:35;;;;;;;11.63;5.25;;;21.40;46.00;;;;;;5053055;28;20066;-50
2023/12/10 11:38:02;;;;;;;14.02;5.85;;;21.40;46.50;;;;;;5053516;28;20063;-60
2023/12/10 11:40:29;;;;;;;14.35;5.93;;;21.30;47.30;;;;;;5053087;28;20029;-56
2023/12/10 11:43:05;;;;;;;8.77;3.83;;;21.40;48.00;;;;;;5050436;28;20096;-63
2023/12/10 11:45:31;;;;;;;5.38;2.15;;;21.50;47.00;;;;;;5034649;28;20052;-62
2023/12/10 11:47:57;;;;;;;4.72;2.20;;;21.50;45.90;;;;;;5021649;28;20167;-59
2023/12/10 11:50:23;;;;;;;5.95;1.98;;;21.50;45.10;;;;;;5052572;28;20436;-59
2023/12/10 11:52:50;;;;;;;3.28;1.48;;;21.50;44.60;;;;;;5037928;28;20461;-58
2023/12/10 11:55:17;;;;;;;5.63;1.83;;;21.60;44.20;;;;;;5024005;28;20049;-50
2023/12/10 11:57:44;;;;;;;4.57;1.98;;;21.60;43.90;;;;;;5039549;28;20045;-58
2023/12/10 12:00:14;;;;;;;4.75;1.73;;;21.50;43.50;;;;;;5045828;28;20017;-58
2023/12/10 12:02:44;;;;;;;6.63;1.88;;;21.50;43.30;;;;;;5047329;28;20025;-54
2023/12/10 12:05:12;;;;;;;3.75;1.60;;;21.50;43.20;;;;;;5044439;28;20064;-59
2023/12/10 12:07:38;;;;;;;4.60;1.83;;;21.40;43.00;;;;;;5039349;28;20021;-53
2023/12/10 12:10:08;;;;;;;4.10;1.70;;;21.40;42.90;;;;;;5042927;28;20029;-57
2023/12/10 12:12:42;;;;;;;7.05;2.10;;;21.40;42.80;;;;;;5037272;28;20033;-50
2023/12/10 12:15:12;;;;;;;6.47;2.38;;;21.40;42.60;;;;;;5026128;28;20103;-59
2023/12/10 12:17:40;;;;;;;5.80;2.10;;;21.30;42.50;;;;;;5041852;28;20175;-55
2023/12/10 12:20:13;;;;;;;3.72;1.60;;;21.30;42.40;;;;;;5050323;28;20036;-56
2023/12/10 12:22:39;;;;;;;5.63;1.90;;;21.30;42.30;;;;;;5043277;28;20088;-57
2023/12/10 12:25:06;;;;;;;4.95;1.73;;;21.30;42.30;;;;;;5042522;28;20021;-56
2023/12/10 12:27:32;;;;;;;4.60;1.33;;;21.30;42.20;;;;;;5044862;28;20034;-59
2023/12/10 12:29:58;;;;;;;3.60;1.38;;;21.20;42.10;;;;;;5025916;28;20030;-54
2023/12/10 12:32:24;;;;;;;4.75;1.85;;;21.20;42.00;;;;;;5038143;28;20041;-55
2023/12/10 12:34:50;;;;;;;4.13;1.73;;;21.20;41.90;;;;;;5020218;28;20044;-55
2023/12/10 12:37:16;;;;;;;4.93;2.08;;;21.20;41.80;;;;;;5038105;28;20042;-57
2023/12/10 12:39:42;;;;;;;3.90;1.58;;;21.20;41.80;;;;;;5019625;28;20041;-51
2023/12/10 12:42:08;;;;;;;3.22;1.65;;;21.20;41.70;;;;;;5037769;28;20043;-54